메인 페이지
METAR-TAF:

METAR-TAF

공항 :

Sioux Gateway Airport (Col. Bud Day Field)

수시티, 아이오와, 미국

위도: 42-24-09N, 경도: 096-23-04W, 고도: 335m

현재 날씨관측

예보는 10분 전, 21:52시(UTC)에 발표되었습니다.
14kt
온도 -2°C
습도 80%
기압 1027 hPa
시정: 9.7km
고도 1800ft 상공 구름 많음
고도 2400ft 상공 흐림
연무

METAR: KSUX 252152Z 36014KT 6SM HZ BKN018 OVC024 M02/M05 A3033 RMK AO2 SLP285 T10221050

시각: 17:02 (22:02 UTC)

예보

예보는 1 시간 28분 전, 20:34시(UTC)에 발표되었습니다.
예보 대상 시간: 25일 21시부터 26일 18시까지 (UTC)
14kt
시정: 4.8km
고도 2000ft 상공 흐림
약한눈, 박무
26일 0100시부터 (UTC)
12kt
시정: 6.4km
고도 1500ft 상공 흐림
약한눈, 박무
26일 0600시부터 (UTC)
북북서8kt
시정: 10km
고도 3500ft 상공 흐림
26일 1200시부터 (UTC)
북북서8kt
시정: 10km
고도 10000ft 상공 흐림

TAF: KSUX 252034Z 2521/2618 36014KT 3SM -SN BR OVC020 FM260100 36012KT 4SM -SN BR OVC015 FM260600 34008KT P6SM OVC035 FM261200 34008KT P6SM OVC100

4,000개 이상의 공항 관측 자료 및 예보 (METAR 및 TAF 보고).

지도상에서 검색 가능한 기상관측소가 노란 점과 빨간 점으로 표시되어 있습니다.

기상관측소 명을 보려면 표시 위로 마우스를 이동하세요.

날씨 관측과 예보를 보려면 클릭하세요.

지도 변경 : 확대하려면 엑스 표시가 있는 녹색 버튼, 축소하려면 빼기 표시가 있는 녹색 버튼, 다음 페이지의 지도를 보려면 녹색 화살표를 클릭하세요.


METAR-TAF: